createdAt,value
2022-11-29T00:02:45.312Z,10.05
2022-11-29T00:07:45.040Z,10.07
2022-11-29T00:12:44.921Z,10.11
2022-11-29T00:17:44.806Z,10.14
2022-11-29T00:22:44.803Z,10.01
2022-11-29T00:27:44.755Z,10.01
2022-11-29T00:32:44.740Z,10.05
2022-11-29T00:37:44.676Z,9.99
2022-11-29T00:42:44.631Z,10.02
2022-11-29T00:47:44.552Z,10.09
2022-11-29T00:52:44.578Z,10.12
2022-11-29T00:57:44.541Z,9.99
2022-11-29T01:02:44.418Z,10.07
2022-11-29T01:07:44.526Z,10.09
2022-11-29T01:12:44.243Z,10.09
2022-11-29T01:17:44.196Z,10.15
2022-11-29T01:22:44.229Z,10.25
2022-11-29T01:27:44.103Z,10.15
2022-11-29T01:32:44.155Z,10.14
2022-11-29T01:37:43.981Z,10.12
2022-11-29T01:42:43.996Z,10.04
2022-11-29T01:47:43.936Z,9.94
2022-11-29T01:52:43.817Z,10.02
2022-11-29T01:57:43.813Z,9.96
2022-11-29T02:02:43.770Z,9.93
2022-11-29T02:07:43.704Z,9.94
2022-11-29T02:12:43.569Z,10.07
2022-11-29T02:17:43.490Z,10.09
2022-11-29T02:22:43.497Z,10.09
2022-11-29T02:27:43.386Z,10.11
2022-11-29T02:32:43.324Z,10.08
2022-11-29T02:37:43.281Z,10.15
2022-11-29T02:42:43.197Z,10.15
2022-11-29T02:47:43.145Z,10.12
2022-11-29T02:52:43.138Z,10.07
2022-11-29T02:57:43.049Z,10.07
2022-11-29T03:02:43.042Z,10.14
2022-11-29T03:07:42.949Z,10.20
2022-11-29T03:12:42.883Z,10.20
2022-11-29T03:17:42.921Z,10.23
2022-11-29T03:22:42.810Z,10.22
2022-11-29T03:27:42.806Z,10.26
2022-11-29T03:32:42.736Z,10.22
2022-11-29T03:37:42.590Z,10.18
2022-11-29T03:42:42.581Z,10.20
2022-11-29T03:47:44.481Z,10.29
2022-11-29T03:52:42.450Z,10.26
2022-11-29T03:57:42.389Z,10.22
2022-11-29T04:02:42.405Z,10.14
2022-11-29T04:07:42.334Z,10.11
2022-11-29T04:12:42.204Z,10.08
2022-11-29T04:17:42.145Z,9.91
2022-11-29T04:22:42.075Z,9.86
2022-11-29T04:27:42.036Z,9.84
2022-11-29T04:32:41.999Z,9.89
2022-11-29T04:37:41.940Z,10.02
2022-11-29T04:42:42.923Z,9.94
2022-11-29T04:47:41.803Z,9.93
2022-11-29T04:52:41.751Z,9.93
2022-11-29T04:57:41.826Z,9.78
2022-11-29T05:02:41.796Z,9.81
2022-11-29T05:07:41.619Z,9.79
2022-11-29T05:12:41.527Z,9.81
2022-11-29T05:17:41.507Z,9.74
2022-11-29T05:22:41.408Z,9.87
2022-11-29T05:28:51.706Z,10.01
2022-11-29T05:33:51.670Z,9.89
2022-11-29T05:38:51.682Z,9.86
2022-11-29T05:43:51.562Z,9.86
2022-11-29T05:48:51.525Z,9.74
2022-11-29T05:53:51.454Z,9.74
2022-11-29T05:58:51.410Z,9.76
2022-11-29T06:03:51.361Z,9.71
2022-11-29T06:08:51.299Z,9.74
2022-11-29T06:13:51.235Z,9.69
2022-11-29T06:18:51.155Z,9.66
2022-11-29T06:23:51.109Z,9.69
2022-11-29T06:28:51.127Z,9.57
2022-11-29T06:33:51.087Z,9.57
2022-11-29T06:38:50.976Z,9.48
2022-11-29T06:43:50.929Z,9.51
2022-11-29T06:48:50.969Z,9.56
2022-11-29T06:53:50.883Z,9.54
2022-11-29T06:58:50.831Z,9.56
2022-11-29T07:03:50.690Z,9.58
2022-11-29T07:08:50.710Z,9.56
2022-11-29T07:13:50.604Z,9.58
2022-11-29T07:18:50.493Z,9.60
2022-11-29T07:23:50.484Z,9.58
2022-11-29T07:28:50.494Z,9.64
2022-11-29T07:33:50.415Z,9.64
2022-11-29T07:38:52.373Z,9.57
2022-11-29T07:43:50.252Z,9.58
2022-11-29T07:48:50.318Z,9.57
2022-11-29T07:53:50.140Z,9.60
2022-11-29T07:58:52.168Z,9.60
2022-11-29T08:03:50.043Z,9.69
2022-11-29T08:08:49.988Z,9.74
2022-11-29T08:13:50.996Z,9.71
2022-11-29T08:18:50.042Z,9.69
2022-11-29T08:23:50.806Z,9.61
2022-11-29T08:28:49.966Z,9.68
2022-11-29T08:33:49.767Z,9.68
2022-11-29T08:38:51.787Z,9.68
2022-11-29T08:43:50.568Z,9.71
2022-11-29T08:48:49.536Z,9.78
2022-11-29T08:53:49.461Z,9.83
2022-11-29T08:58:49.440Z,9.89
2022-11-29T09:03:49.435Z,9.97
2022-11-29T09:08:49.380Z,9.97
2022-11-29T09:13:49.402Z,9.94
2022-11-29T09:18:51.869Z,10.04
2022-11-29T09:23:49.151Z,9.91
2022-11-29T09:28:49.090Z,10.09
2022-11-29T09:33:49.029Z,10.20
2022-11-29T09:38:49.088Z,10.25
2022-11-29T09:43:49.990Z,10.32
2022-11-29T09:48:49.364Z,10.27
2022-11-29T09:53:49.017Z,10.23
2022-11-29T09:58:48.966Z,10.40
2022-11-29T10:03:48.795Z,10.45
2022-11-29T10:08:48.767Z,10.47
2022-11-29T10:13:48.703Z,10.55
2022-11-29T10:18:48.547Z,10.41
2022-11-29T10:23:48.554Z,10.41
2022-11-29T10:28:48.471Z,10.53
2022-11-29T10:33:49.617Z,10.66
2022-11-29T10:38:48.638Z,10.66
2022-11-29T10:43:48.456Z,10.74
2022-11-29T10:48:48.270Z,10.82
2022-11-29T10:53:48.255Z,10.88
2022-11-29T10:58:48.260Z,10.84
2022-11-29T11:03:52.651Z,10.71
2022-11-29T11:08:49.104Z,10.76
2022-11-29T11:13:50.043Z,10.73
2022-11-29T11:18:47.987Z,10.66
2022-11-29T11:23:47.997Z,10.66
2022-11-29T11:28:56.292Z,10.68
2022-11-29T11:33:47.697Z,10.63
2022-11-29T11:38:47.676Z,10.73
2022-11-29T11:43:49.621Z,10.73
2022-11-29T11:48:47.580Z,10.51
2022-11-29T11:53:47.506Z,10.42
2022-11-29T11:58:47.452Z,10.51
2022-11-29T12:03:47.404Z,10.41
2022-11-29T12:08:47.415Z,10.41
2022-11-29T12:13:47.284Z,10.44
2022-11-29T12:18:47.275Z,10.56
2022-11-29T12:23:47.181Z,10.64
2022-11-29T12:28:47.141Z,10.52
2022-11-29T12:33:47.207Z,10.26
2022-11-29T12:38:47.195Z,10.38
2022-11-29T12:43:47.064Z,10.40
2022-11-29T12:48:47.024Z,10.33
2022-11-29T12:53:46.973Z,10.11
2022-11-29T12:58:46.831Z,10.22
2022-11-29T13:03:46.753Z,10.08
2022-11-29T13:08:46.774Z,10.12
2022-11-29T13:13:47.753Z,10.09
2022-11-29T13:18:46.673Z,10.12
2022-11-29T13:24:07.728Z,10.18
2022-11-29T13:28:47.595Z,10.29
2022-11-29T13:33:46.403Z,10.22
2022-11-29T13:38:46.421Z,10.26
2022-11-29T13:43:46.294Z,10.40
2022-11-29T13:48:46.243Z,10.27
2022-11-29T13:53:49.186Z,10.23
2022-11-29T13:58:46.168Z,10.26
2022-11-29T14:03:46.109Z,10.01
2022-11-29T14:13:47.029Z,10.15
2022-11-29T14:18:45.960Z,10.26
2022-11-29T14:23:45.973Z,10.12
2022-11-29T14:28:45.904Z,10.20
2022-11-29T14:33:45.782Z,10.17
2022-11-29T14:38:45.726Z,10.12
2022-11-29T14:43:45.674Z,10.04
2022-11-29T14:48:45.676Z,10.02
2022-11-29T14:53:45.614Z,10.04
2022-11-29T14:58:45.519Z,10.07
2022-11-29T15:03:45.492Z,9.99
2022-11-29T15:08:45.416Z,9.91
2022-11-29T15:13:45.335Z,9.87
2022-11-29T15:18:45.295Z,9.89
2022-11-29T15:23:45.206Z,9.78
2022-11-29T15:28:45.186Z,9.78
2022-11-29T15:33:45.132Z,9.72
2022-11-29T15:38:45.026Z,9.71
2022-11-29T15:43:44.999Z,9.53
2022-11-29T15:48:44.935Z,9.57
2022-11-29T15:53:44.947Z,9.47
2022-11-29T15:58:44.809Z,9.48
2022-11-29T16:03:44.783Z,9.58
2022-11-29T16:08:44.702Z,9.60
2022-11-29T16:13:44.674Z,9.51
2022-11-29T16:18:44.636Z,9.42
2022-11-29T16:23:44.561Z,9.43
2022-11-29T16:28:44.516Z,9.39
2022-11-29T16:33:44.473Z,9.33
2022-11-29T16:38:44.393Z,9.33
2022-11-29T16:43:44.351Z,9.26
2022-11-29T16:48:44.273Z,9.28
2022-11-29T16:53:44.238Z,9.28
2022-11-29T16:59:25.439Z,9.15
2022-11-29T17:03:45.117Z,9.33
2022-11-29T17:08:44.060Z,9.38
2022-11-29T17:13:43.993Z,9.35
2022-11-29T17:18:43.964Z,9.32
2022-11-29T17:23:43.883Z,9.26
2022-11-29T17:28:52.162Z,9.24
2022-11-29T17:33:43.756Z,9.23
2022-11-29T17:38:43.765Z,9.18
2022-11-29T17:43:43.712Z,9.14
2022-11-29T17:48:43.689Z,9.10
2022-11-29T17:53:43.624Z,9.05
2022-11-29T17:58:43.518Z,9.04
2022-11-29T18:03:43.460Z,9.04
2022-11-29T18:08:43.414Z,9.14
2022-11-29T18:13:43.466Z,9.15
2022-11-29T18:18:43.324Z,9.08
2022-11-29T18:23:43.358Z,9.04
2022-11-29T18:28:43.253Z,9.11
2022-11-29T18:33:43.187Z,9.13
2022-11-29T18:38:43.115Z,9.10
2022-11-29T18:43:43.013Z,9.02
2022-11-29T18:48:43.009Z,8.98
2022-11-29T18:53:43.151Z,8.99
2022-11-29T18:58:42.907Z,9.01
2022-11-29T19:03:42.831Z,9.02
2022-11-29T19:08:42.931Z,9.04
2022-11-29T19:13:42.780Z,9.10
2022-11-29T19:18:42.714Z,9.08
2022-11-29T19:23:42.690Z,9.08
2022-11-29T19:28:42.571Z,9.02
2022-11-29T19:33:42.540Z,8.99
2022-11-29T19:38:43.328Z,9.05
2022-11-29T19:43:42.405Z,9.05
2022-11-29T19:48:42.362Z,9.04
2022-11-29T19:53:42.280Z,9.04
2022-11-29T19:58:42.208Z,9.02
2022-11-29T20:03:42.164Z,9.10
2022-11-29T20:08:42.187Z,9.10
2022-11-29T20:13:42.035Z,9.10
2022-11-29T20:18:47.123Z,9.05
2022-11-29T20:23:43.010Z,9.08
2022-11-29T20:28:41.958Z,9.02
2022-11-29T20:33:41.923Z,9.05
2022-11-29T20:38:41.859Z,9.02
2022-11-29T20:43:41.772Z,9.08
2022-11-29T20:48:41.691Z,9.10
2022-11-29T20:53:41.643Z,9.04
2022-11-29T20:58:42.581Z,9.10
2022-11-29T21:03:41.693Z,9.13
2022-11-29T21:08:41.565Z,8.98
2022-11-29T21:13:41.396Z,9.04
2022-11-29T21:18:41.342Z,9.04
2022-11-29T21:23:42.302Z,9.05
2022-11-29T21:28:41.156Z,9.01
2022-11-29T21:33:41.175Z,8.94
2022-11-29T21:38:41.166Z,8.94
2022-11-29T21:44:05.654Z,8.81
2022-11-29T21:48:42.005Z,8.87
2022-11-29T21:53:40.901Z,8.89
2022-11-29T21:58:40.934Z,8.92
2022-11-29T22:03:40.856Z,8.81
2022-11-29T22:08:40.826Z,8.79
2022-11-29T22:13:40.770Z,8.81
2022-11-29T22:18:40.698Z,8.68
2022-11-29T22:23:40.656Z,8.52
2022-11-29T22:28:40.537Z,8.53
2022-11-29T22:33:40.626Z,8.73
2022-11-29T22:38:40.515Z,8.81
2022-11-29T22:43:40.440Z,8.71
2022-11-29T22:48:40.335Z,8.74
2022-11-29T22:53:40.255Z,8.76
2022-11-29T22:58:40.204Z,8.70
2022-11-29T23:03:40.156Z,8.71
2022-11-29T23:08:40.151Z,8.71
2022-11-29T23:13:40.072Z,8.74
2022-11-29T23:18:43.429Z,8.74
2022-11-29T23:23:39.953Z,8.79
2022-11-29T23:28:39.874Z,8.81
2022-11-29T23:33:48.677Z,8.98
2022-11-29T23:38:39.724Z,8.81
2022-11-29T23:43:39.867Z,8.84
2022-11-29T23:48:39.649Z,8.86
2022-11-29T23:53:39.747Z,8.86
2022-11-29T23:58:39.556Z,8.80
